sensor_id;sensor_type;location;lat;lon;timestamp;pressure;altitude;pressure_sealevel;temperature;humidity
68988;BME280;56038;46.080;11.116;2023-05-01T00:03:19;99270.06;;;15.47;66.88
68988;BME280;56038;46.080;11.116;2023-05-01T00:08:20;99255.28;;;15.45;66.92
68988;BME280;56038;46.080;11.116;2023-05-01T00:13:22;99261.78;;;15.39;66.69
68988;BME280;56038;46.080;11.116;2023-05-01T00:18:25;99256.22;;;15.44;66.68
68988;BME280;56038;46.080;11.116;2023-05-01T00:23:27;99253.69;;;15.42;67.07
68988;BME280;56038;46.080;11.116;2023-05-01T00:28:28;99250.97;;;15.44;67.25
68988;BME280;56038;46.080;11.116;2023-05-01T00:33:31;99249.28;;;15.43;67.04
68988;BME280;56038;46.080;11.116;2023-05-01T00:38:33;99245.25;;;15.37;67.38
68988;BME280;56038;46.080;11.116;2023-05-01T00:43:35;99250.81;;;15.33;67.69
68988;BME280;56038;46.080;11.116;2023-05-01T00:48:38;99251.75;;;15.32;67.79
68988;BME280;56038;46.080;11.116;2023-05-01T00:53:40;99248.06;;;15.20;68.75
68988;BME280;56038;46.080;11.116;2023-05-01T00:58:41;99252.00;;;15.27;68.70
68988;BME280;56038;46.080;11.116;2023-05-01T01:03:45;99246.94;;;15.24;68.39
68988;BME280;56038;46.080;11.116;2023-05-01T01:08:54;99246.94;;;15.24;69.03
68988;BME280;56038;46.080;11.116;2023-05-01T01:14:04;99254.06;;;15.22;69.09
68988;BME280;56038;46.080;11.116;2023-05-01T01:30:26;99247.78;;;15.24;70.75
68988;BME280;56038;46.080;11.116;2023-05-01T01:35:36;99238.69;;;15.16;69.63
68988;BME280;56038;46.080;11.116;2023-05-01T01:40:47;99240.06;;;15.21;69.68
68988;BME280;56038;46.080;11.116;2023-05-01T01:45:54;99240.63;;;15.26;68.80
68988;BME280;56038;46.080;11.116;2023-05-01T01:51:00;99237.53;;;15.34;68.83
68988;BME280;56038;46.080;11.116;2023-05-01T01:56:08;99233.38;;;15.30;69.00
68988;BME280;56038;46.080;11.116;2023-05-01T02:01:12;99239.13;;;15.22;69.27
68988;BME280;56038;46.080;11.116;2023-05-01T02:06:20;99232.53;;;15.29;69.24
68988;BME280;56038;46.080;11.116;2023-05-01T02:11:24;99233.78;;;15.24;69.14
68988;BME280;56038;46.080;11.116;2023-05-01T02:16:26;99229.16;;;15.13;69.69
68988;BME280;56038;46.080;11.116;2023-05-01T02:21:29;99224.94;;;15.11;69.97
68988;BME280;56038;46.080;11.116;2023-05-01T02:26:34;99221.00;;;15.18;69.80
68988;BME280;56038;46.080;11.116;2023-05-01T02:31:39;99211.97;;;15.22;69.67
68988;BME280;56038;46.080;11.116;2023-05-01T02:36:42;99222.59;;;15.20;69.84
68988;BME280;56038;46.080;11.116;2023-05-01T02:41:44;99208.97;;;15.14;70.25
68988;BME280;56038;46.080;11.116;2023-05-01T02:46:47;99210.19;;;15.08;70.60
68988;BME280;56038;46.080;11.116;2023-05-01T02:51:50;99217.97;;;14.95;71.61
68988;BME280;56038;46.080;11.116;2023-05-01T02:56:52;99209.97;;;14.97;71.21
68988;BME280;56038;46.080;11.116;2023-05-01T03:01:54;99205.66;;;14.96;71.43
68988;BME280;56038;46.080;11.116;2023-05-01T03:06:57;99193.94;;;15.02;70.80
68988;BME280;56038;46.080;11.116;2023-05-01T03:11:59;99194.31;;;14.95;71.21
68988;BME280;56038;46.080;11.116;2023-05-01T03:17:01;99190.63;;;14.98;70.89
68988;BME280;56038;46.080;11.116;2023-05-01T03:22:04;99182.84;;;14.96;71.22
68988;BME280;56038;46.080;11.116;2023-05-01T03:27:06;99195.91;;;14.84;72.08
68988;BME280;56038;46.080;11.116;2023-05-01T03:32:08;99191.66;;;14.81;72.06
68988;BME280;56038;46.080;11.116;2023-05-01T03:37:11;99169.88;;;14.79;72.31
68988;BME280;56038;46.080;11.116;2023-05-01T03:42:12;99180.19;;;14.82;72.50
68988;BME280;56038;46.080;11.116;2023-05-01T03:47:14;99173.84;;;14.86;72.34
68988;BME280;56038;46.080;11.116;2023-05-01T03:52:17;99169.31;;;14.88;72.05
68988;BME280;56038;46.080;11.116;2023-05-01T03:57:18;99174.78;;;14.85;71.73
68988;BME280;56038;46.080;11.116;2023-05-01T04:02:22;99175.59;;;14.72;73.27
68988;BME280;56038;46.080;11.116;2023-05-01T04:07:25;99164.78;;;14.62;72.94
68988;BME280;56038;46.080;11.116;2023-05-01T04:12:26;99167.03;;;14.54;73.68
68988;BME280;56038;46.080;11.116;2023-05-01T04:17:29;99167.38;;;14.48;73.96
68988;BME280;56038;46.080;11.116;2023-05-01T04:22:32;99169.00;;;14.34;74.80
68988;BME280;56038;46.080;11.116;2023-05-01T04:27:34;99169.00;;;14.34;74.96
68988;BME280;56038;46.080;11.116;2023-05-01T04:32:36;99172.41;;;14.36;74.56
68988;BME280;56038;46.080;11.116;2023-05-01T04:37:39;99161.28;;;14.47;73.76
68988;BME280;56038;46.080;11.116;2023-05-01T04:42:40;99166.19;;;14.53;73.92
68988;BME280;56038;46.080;11.116;2023-05-01T04:47:42;99161.41;;;14.60;73.32
68988;BME280;56038;46.080;11.116;2023-05-01T04:52:45;99177.28;;;14.73;73.04
68988;BME280;56038;46.080;11.116;2023-05-01T04:57:47;99166.69;;;14.74;72.91
68988;BME280;56038;46.080;11.116;2023-05-01T05:02:49;99175.72;;;14.70;73.15
68988;BME280;56038;46.080;11.116;2023-05-01T05:07:52;99172.88;;;14.73;72.94
68988;BME280;56038;46.080;11.116;2023-05-01T05:18:03;99172.59;;;14.78;72.64
68988;BME280;56038;46.080;11.116;2023-05-01T05:28:16;99187.16;;;14.97;72.18
68988;BME280;56038;46.080;11.116;2023-05-01T05:38:28;99181.34;;;15.07;72.30
68988;BME280;56038;46.080;11.116;2023-05-01T05:43:31;99180.31;;;15.09;71.86
68988;BME280;56038;46.080;11.116;2023-05-01T05:48:33;99186.22;;;15.13;71.68
68988;BME280;56038;46.080;11.116;2023-05-01T05:53:35;99189.78;;;15.12;72.17
68988;BME280;56038;46.080;11.116;2023-05-01T05:58:38;99193.38;;;15.11;72.60
68988;BME280;56038;46.080;11.116;2023-05-01T06:03:39;99185.66;;;14.93;74.36
68988;BME280;56038;46.080;11.116;2023-05-01T06:08:41;99185.31;;;15.00;73.76
68988;BME280;56038;46.080;11.116;2023-05-01T06:18:56;99181.34;;;15.21;73.01
68988;BME280;56038;46.080;11.116;2023-05-01T06:29:07;99180.75;;;15.30;73.15
68988;BME280;56038;46.080;11.116;2023-05-01T06:34:10;99176.31;;;15.45;72.20
68988;BME280;56038;46.080;11.116;2023-05-01T06:39:12;99179.53;;;15.50;72.09
68988;BME280;56038;46.080;11.116;2023-05-01T06:44:14;99181.00;;;15.54;72.06
68988;BME280;56038;46.080;11.116;2023-05-01T06:49:17;99184.28;;;15.57;71.50
68988;BME280;56038;46.080;11.116;2023-05-01T06:54:18;99189.66;;;15.56;71.25
68988;BME280;56038;46.080;11.116;2023-05-01T06:59:20;99190.16;;;15.63;71.62
68988;BME280;56038;46.080;11.116;2023-05-01T07:04:23;99190.81;;;15.66;71.43
68988;BME280;56038;46.080;11.116;2023-05-01T07:09:25;99196.13;;;15.79;71.54
68988;BME280;56038;46.080;11.116;2023-05-01T07:14:26;99193.72;;;15.88;71.13
68988;BME280;56038;46.080;11.116;2023-05-01T07:19:29;99205.13;;;16.16;69.80
68988;BME280;56038;46.080;11.116;2023-05-01T07:24:31;99197.03;;;16.32;69.66
68988;BME280;56038;46.080;11.116;2023-05-01T07:29:34;99194.56;;;16.43;69.51
68988;BME280;56038;46.080;11.116;2023-05-01T07:34:37;99194.16;;;16.62;68.49
68988;BME280;56038;46.080;11.116;2023-05-01T07:39:39;99187.88;;;16.90;67.55
68988;BME280;56038;46.080;11.116;2023-05-01T07:44:41;99186.38;;;17.24;66.55
68988;BME280;56038;46.080;11.116;2023-05-01T07:49:44;99189.03;;;17.48;65.61
68988;BME280;56038;46.080;11.116;2023-05-01T07:54:48;99188.19;;;17.73;64.24
68988;BME280;56038;46.080;11.116;2023-05-01T07:59:53;99189.81;;;17.86;62.97
68988;BME280;56038;46.080;11.116;2023-05-01T08:04:57;99187.13;;;17.99;62.03
68988;BME280;56038;46.080;11.116;2023-05-01T08:09:58;99185.88;;;18.16;61.06
68988;BME280;56038;46.080;11.116;2023-05-01T08:15:00;99184.69;;;18.20;60.34
68988;BME280;56038;46.080;11.116;2023-05-01T08:20:04;99190.25;;;18.04;60.62
68988;BME280;56038;46.080;11.116;2023-05-01T08:25:06;99193.63;;;18.06;60.74
68988;BME280;56038;46.080;11.116;2023-05-01T08:30:09;99188.69;;;18.02;60.52
68988;BME280;56038;46.080;11.116;2023-05-01T08:35:12;99188.22;;;18.08;59.74
68988;BME280;56038;46.080;11.116;2023-05-01T08:40:14;99186.44;;;18.08;59.82
68988;BME280;56038;46.080;11.116;2023-05-01T08:45:17;99190.31;;;18.15;59.81
68988;BME280;56038;46.080;11.116;2023-05-01T08:50:21;99190.88;;;18.08;59.71
68988;BME280;56038;46.080;11.116;2023-05-01T08:55:25;99188.63;;;17.90;57.81
68988;BME280;56038;46.080;11.116;2023-05-01T09:00:28;99185.41;;;17.98;58.20
68988;BME280;56038;46.080;11.116;2023-05-01T09:05:44;99188.47;;;18.05;55.07
68988;BME280;56038;46.080;11.116;2023-05-01T09:10:55;99177.47;;;18.22;56.71
68988;BME280;56038;46.080;11.116;2023-05-01T09:15:58;99180.06;;;18.11;55.62
68988;BME280;56038;46.080;11.116;2023-05-01T09:21:02;99176.03;;;18.18;55.07
68988;BME280;56038;46.080;11.116;2023-05-01T09:26:04;99184.69;;;18.20;53.92
68988;BME280;56038;46.080;11.116;2023-05-01T09:31:19;99186.97;;;18.24;51.42
68988;BME280;56038;46.080;11.116;2023-05-01T09:36:23;99185.78;;;18.29;51.09
68988;BME280;56038;46.080;11.116;2023-05-01T09:41:26;99179.69;;;18.39;53.37
68988;BME280;56038;46.080;11.116;2023-05-01T09:46:27;99169.41;;;18.59;52.22
68988;BME280;56038;46.080;11.116;2023-05-01T09:51:31;99164.09;;;19.05;50.99
68988;BME280;56038;46.080;11.116;2023-05-01T09:56:45;99159.16;;;19.34;47.62
68988;BME280;56038;46.080;11.116;2023-05-01T10:01:47;99159.63;;;19.61;48.66
68988;BME280;56038;46.080;11.116;2023-05-01T10:06:51;99152.50;;;19.73;47.98
68988;BME280;56038;46.080;11.116;2023-05-01T10:11:54;99152.56;;;20.47;46.19
68988;BME280;56038;46.080;11.116;2023-05-01T10:16:56;99139.56;;;20.95;45.45
68988;BME280;56038;46.080;11.116;2023-05-01T10:21:59;99130.44;;;21.59;44.12
68988;BME280;56038;46.080;11.116;2023-05-01T10:27:01;99122.63;;;21.86;43.88
68988;BME280;56038;46.080;11.116;2023-05-01T10:32:05;99129.50;;;22.08;43.65
68988;BME280;56038;46.080;11.116;2023-05-01T10:37:12;99114.25;;;22.20;42.15
68988;BME280;56038;46.080;11.116;2023-05-01T10:42:14;99110.88;;;21.98;43.30
68988;BME280;56038;46.080;11.116;2023-05-01T10:47:43;99103.81;;;22.55;39.58
68988;BME280;56038;46.080;11.116;2023-05-01T10:53:18;99099.28;;;21.80;40.66
68988;BME280;56038;46.080;11.116;2023-05-01T11:03:55;99088.06;;;21.86;42.71
68988;BME280;56038;46.080;11.116;2023-05-01T11:08:59;99077.69;;;21.93;41.33
68988;BME280;56038;46.080;11.116;2023-05-01T11:14:01;99071.94;;;21.39;41.97
68988;BME280;56038;46.080;11.116;2023-05-01T11:19:03;99076.06;;;21.22;41.54
68988;BME280;56038;46.080;11.116;2023-05-01T11:24:06;99064.78;;;21.30;41.31
68988;BME280;56038;46.080;11.116;2023-05-01T11:29:09;99063.16;;;21.08;41.96
68988;BME280;56038;46.080;11.116;2023-05-01T11:34:11;99066.78;;;20.67;42.46
68988;BME280;56038;46.080;11.116;2023-05-01T11:39:15;99062.31;;;20.68;41.31
68988;BME280;56038;46.080;11.116;2023-05-01T11:44:17;99056.63;;;20.72;42.48
68988;BME280;56038;46.080;11.116;2023-05-01T11:49:25;99056.53;;;20.53;42.61
68988;BME280;56038;46.080;11.116;2023-05-01T11:54:28;99054.78;;;21.13;42.53
68988;BME280;56038;46.080;11.116;2023-05-01T11:59:30;99051.88;;;21.16;43.13
68988;BME280;56038;46.080;11.116;2023-05-01T12:04:32;99049.69;;;21.31;42.85
68988;BME280;56038;46.080;11.116;2023-05-01T12:09:35;99043.78;;;21.27;43.73
68988;BME280;56038;46.080;11.116;2023-05-01T12:14:38;99047.41;;;21.16;44.21
68988;BME280;56038;46.080;11.116;2023-05-01T12:19:46;99051.47;;;21.30;42.53
68988;BME280;56038;46.080;11.116;2023-05-01T12:24:50;99050.94;;;21.46;42.30
68988;BME280;56038;46.080;11.116;2023-05-01T12:29:53;99048.03;;;21.97;41.26
68988;BME280;56038;46.080;11.116;2023-05-01T12:34:55;99036.28;;;22.09;41.14
68988;BME280;56038;46.080;11.116;2023-05-01T12:39:58;99035.78;;;22.43;41.23
68988;BME280;56038;46.080;11.116;2023-05-01T12:45:00;99029.59;;;22.52;41.79
68988;BME280;56038;46.080;11.116;2023-05-01T12:50:02;99037.81;;;22.02;41.63
68988;BME280;56038;46.080;11.116;2023-05-01T12:55:06;99029.00;;;21.82;41.95
68988;BME280;56038;46.080;11.116;2023-05-01T13:00:09;99020.75;;;21.76;42.77
68988;BME280;56038;46.080;11.116;2023-05-01T13:05:12;99011.66;;;21.69;43.09
68988;BME280;56038;46.080;11.116;2023-05-01T13:10:28;99020.88;;;21.36;42.48
68988;BME280;56038;46.080;11.116;2023-05-01T13:15:30;99023.97;;;21.50;43.23
68988;BME280;56038;46.080;11.116;2023-05-01T13:20:32;99016.41;;;21.56;43.09
68988;BME280;56038;46.080;11.116;2023-05-01T13:25:36;99016.81;;;21.61;43.13
68988;BME280;56038;46.080;11.116;2023-05-01T13:30:38;99021.16;;;21.42;43.12
68988;BME280;56038;46.080;11.116;2023-05-01T13:35:40;99019.75;;;21.29;43.30
68988;BME280;56038;46.080;11.116;2023-05-01T13:40:43;99015.22;;;21.10;42.89
68988;BME280;56038;46.080;11.116;2023-05-01T13:45:45;99013.03;;;20.75;43.47
68988;BME280;56038;46.080;11.116;2023-05-01T13:50:46;99008.59;;;20.85;43.36
68988;BME280;56038;46.080;11.116;2023-05-01T13:55:49;99009.59;;;20.93;43.36
68988;BME280;56038;46.080;11.116;2023-05-01T14:00:51;99009.31;;;20.97;43.49
68988;BME280;56038;46.080;11.116;2023-05-01T14:05:59;99009.53;;;20.74;43.91
68988;BME280;56038;46.080;11.116;2023-05-01T14:11:10;98999.00;;;20.53;45.22
68988;BME280;56038;46.080;11.116;2023-05-01T14:16:21;99011.53;;;20.30;46.57
68988;BME280;56038;46.080;11.116;2023-05-01T14:21:25;99005.53;;;20.28;46.46
68988;BME280;56038;46.080;11.116;2023-05-01T14:26:28;99001.53;;;20.13;47.11
68988;BME280;56038;46.080;11.116;2023-05-01T14:31:30;99017.38;;;19.62;47.17
68988;BME280;56038;46.080;11.116;2023-05-01T14:36:33;99016.53;;;19.61;43.15
68988;BME280;56038;46.080;11.116;2023-05-01T14:41:39;99022.00;;;19.37;39.37
68988;BME280;56038;46.080;11.116;2023-05-01T14:46:44;99038.44;;;19.20;39.31
68988;BME280;56038;46.080;11.116;2023-05-01T14:51:48;99037.50;;;18.99;41.19
68988;BME280;56038;46.080;11.116;2023-05-01T14:56:52;99038.47;;;18.98;42.77
68988;BME280;56038;46.080;11.116;2023-05-01T15:01:54;99034.38;;;19.05;42.88
68988;BME280;56038;46.080;11.116;2023-05-01T15:06:55;99035.91;;;19.19;43.06
68988;BME280;56038;46.080;11.116;2023-05-01T15:11:58;99035.31;;;19.04;42.69
68988;BME280;56038;46.080;11.116;2023-05-01T15:17:00;99033.06;;;18.99;43.60
68988;BME280;56038;46.080;11.116;2023-05-01T15:22:01;99030.63;;;19.07;43.49
68988;BME280;56038;46.080;11.116;2023-05-01T15:27:04;99024.41;;;18.86;46.97
68988;BME280;56038;46.080;11.116;2023-05-01T15:32:07;99025.75;;;18.80;48.83
68988;BME280;56038;46.080;11.116;2023-05-01T15:37:08;99035.63;;;18.78;48.81
68988;BME280;56038;46.080;11.116;2023-05-01T15:42:11;99029.59;;;18.76;49.12
68988;BME280;56038;46.080;11.116;2023-05-01T15:47:13;99031.63;;;18.84;49.20
68988;BME280;56038;46.080;11.116;2023-05-01T15:52:15;99031.84;;;18.92;48.83
68988;BME280;56038;46.080;11.116;2023-05-01T15:57:18;99033.78;;;19.01;48.23
68988;BME280;56038;46.080;11.116;2023-05-01T16:02:20;99029.06;;;19.05;47.31
68988;BME280;56038;46.080;11.116;2023-05-01T16:07:21;99032.78;;;19.13;46.13
68988;BME280;56038;46.080;11.116;2023-05-01T16:12:26;99033.06;;;19.10;45.46
68988;BME280;56038;46.080;11.116;2023-05-01T16:17:30;99034.00;;;19.09;44.96
68988;BME280;56038;46.080;11.116;2023-05-01T16:22:32;99031.84;;;19.03;43.54
68988;BME280;56038;46.080;11.116;2023-05-01T16:27:38;99042.69;;;19.00;42.64
68988;BME280;56038;46.080;11.116;2023-05-01T16:32:40;99042.44;;;19.03;43.90
68988;BME280;56038;46.080;11.116;2023-05-01T16:37:42;99042.44;;;19.03;44.23
68988;BME280;56038;46.080;11.116;2023-05-01T16:42:49;99048.56;;;19.04;43.03
68988;BME280;56038;46.080;11.116;2023-05-01T16:47:52;99055.53;;;19.05;43.81
68988;BME280;56038;46.080;11.116;2023-05-01T16:52:54;99048.59;;;18.81;39.43
68988;BME280;56038;46.080;11.116;2023-05-01T16:57:57;99047.38;;;18.85;42.83
68988;BME280;56038;46.080;11.116;2023-05-01T17:02:59;99061.91;;;18.58;41.68
68988;BME280;56038;46.080;11.116;2023-05-01T17:08:02;99062.41;;;18.51;42.09
68988;BME280;56038;46.080;11.116;2023-05-01T17:13:07;99070.31;;;18.40;41.55
68988;BME280;56038;46.080;11.116;2023-05-01T17:18:09;99066.09;;;18.38;41.75
68988;BME280;56038;46.080;11.116;2023-05-01T17:23:10;99080.53;;;18.45;42.34
68988;BME280;56038;46.080;11.116;2023-05-01T17:28:13;99083.69;;;18.50;42.60
68988;BME280;56038;46.080;11.116;2023-05-01T17:44:23;99084.91;;;18.00;43.52
68988;BME280;56038;46.080;11.116;2023-05-01T17:49:25;99092.06;;;17.86;39.44
68988;BME280;56038;46.080;11.116;2023-05-01T17:54:27;99102.56;;;17.75;40.60
68988;BME280;56038;46.080;11.116;2023-05-01T17:59:32;99097.75;;;17.69;41.54
68988;BME280;56038;46.080;11.116;2023-05-01T18:04:34;99111.00;;;17.44;42.33
68988;BME280;56038;46.080;11.116;2023-05-01T18:09:37;99121.44;;;17.21;43.26
68988;BME280;56038;46.080;11.116;2023-05-01T18:14:41;99125.66;;;17.11;43.90
68988;BME280;56038;46.080;11.116;2023-05-01T18:19:43;99142.25;;;16.88;45.16
68988;BME280;56038;46.080;11.116;2023-05-01T18:24:45;99134.38;;;16.75;46.83
68988;BME280;56038;46.080;11.116;2023-05-01T18:29:48;99145.00;;;16.61;48.45
68988;BME280;56038;46.080;11.116;2023-05-01T18:35:15;99156.78;;;16.42;49.53
68988;BME280;56038;46.080;11.116;2023-05-01T18:40:19;99167.84;;;16.35;49.17
68988;BME280;56038;46.080;11.116;2023-05-01T18:45:22;99174.03;;;16.21;50.51
68988;BME280;56038;46.080;11.116;2023-05-01T18:50:24;99188.41;;;16.03;50.96
68988;BME280;56038;46.080;11.116;2023-05-01T19:00:44;99197.31;;;15.87;53.35
68988;BME280;56038;46.080;11.116;2023-05-01T19:05:54;99209.66;;;15.87;52.94
68988;BME280;56038;46.080;11.116;2023-05-01T19:10:57;99215.13;;;15.84;53.74
68988;BME280;56038;46.080;11.116;2023-05-01T19:16:00;99220.31;;;15.71;52.74
68988;BME280;56038;46.080;11.116;2023-05-01T19:21:02;99218.72;;;15.69;52.63
68988;BME280;56038;46.080;11.116;2023-05-01T19:31:15;99243.00;;;15.60;53.07
68988;BME280;56038;46.080;11.116;2023-05-01T19:36:19;99249.56;;;15.38;55.89
68988;BME280;56038;46.080;11.116;2023-05-01T19:41:21;99251.25;;;15.39;53.83
68988;BME280;56038;46.080;11.116;2023-05-01T19:46:24;99254.53;;;15.28;55.25
68988;BME280;56038;46.080;11.116;2023-05-01T19:51:26;99261.41;;;15.17;55.32
68988;BME280;56038;46.080;11.116;2023-05-01T19:56:27;99268.16;;;15.07;55.79
68988;BME280;56038;46.080;11.116;2023-05-01T20:01:30;99267.94;;;14.95;56.69
68988;BME280;56038;46.080;11.116;2023-05-01T20:06:40;99282.16;;;15.07;57.01
68988;BME280;56038;46.080;11.116;2023-05-01T20:16:58;99286.75;;;15.04;57.97
68988;BME280;56038;46.080;11.116;2023-05-01T20:22:00;99292.88;;;15.04;58.35
68988;BME280;56038;46.080;11.116;2023-05-01T20:27:03;99295.28;;;14.93;59.19
68988;BME280;56038;46.080;11.116;2023-05-01T20:37:16;99296.69;;;14.84;59.23
68988;BME280;56038;46.080;11.116;2023-05-01T20:42:18;99295.53;;;14.74;60.09
68988;BME280;56038;46.080;11.116;2023-05-01T20:47:20;99296.75;;;14.68;60.37
68988;BME280;56038;46.080;11.116;2023-05-01T20:57:38;99299.66;;;14.48;63.64
68988;BME280;56038;46.080;11.116;2023-05-01T21:02:40;99302.28;;;14.48;63.52
68988;BME280;56038;46.080;11.116;2023-05-01T21:07:42;99302.44;;;14.29;65.25
68988;BME280;56038;46.080;11.116;2023-05-01T21:12:47;99306.59;;;14.18;67.37
68988;BME280;56038;46.080;11.116;2023-05-01T21:17:49;99304.16;;;13.99;68.06
68988;BME280;56038;46.080;11.116;2023-05-01T21:22:50;99308.56;;;13.98;68.78
68988;BME280;56038;46.080;11.116;2023-05-01T21:27:53;99310.91;;;14.03;69.18
68988;BME280;56038;46.080;11.116;2023-05-01T21:32:55;99311.72;;;14.05;68.91
68988;BME280;56038;46.080;11.116;2023-05-01T21:38:10;99305.66;;;14.03;71.12
68988;BME280;56038;46.080;11.116;2023-05-01T21:43:13;99300.75;;;13.97;69.56
68988;BME280;56038;46.080;11.116;2023-05-01T21:48:16;99307.31;;;13.90;70.53
68988;BME280;56038;46.080;11.116;2023-05-01T21:53:19;99306.78;;;13.83;71.71
68988;BME280;56038;46.080;11.116;2023-05-01T21:58:23;99313.22;;;13.77;72.11
68988;BME280;56038;46.080;11.116;2023-05-01T22:03:24;99308.03;;;13.76;72.79
68988;BME280;56038;46.080;11.116;2023-05-01T22:08:26;99306.66;;;13.69;73.68
68988;BME280;56038;46.080;11.116;2023-05-01T22:13:29;99312.34;;;13.61;74.20
68988;BME280;56038;46.080;11.116;2023-05-01T22:18:32;99304.47;;;13.61;74.64
68988;BME280;56038;46.080;11.116;2023-05-01T22:33:55;99310.06;;;13.38;75.97
68988;BME280;56038;46.080;11.116;2023-05-01T22:38:57;99300.59;;;13.35;76.72
68988;BME280;56038;46.080;11.116;2023-05-01T22:43:58;99297.03;;;13.36;76.31
68988;BME280;56038;46.080;11.116;2023-05-01T22:49:02;99303.28;;;13.34;76.98
68988;BME280;56038;46.080;11.116;2023-05-01T22:54:03;99296.53;;;13.30;77.84
68988;BME280;56038;46.080;11.116;2023-05-01T22:59:05;99297.75;;;13.05;80.11
68988;BME280;56038;46.080;11.116;2023-05-01T23:04:11;99296.66;;;12.92;80.50
68988;BME280;56038;46.080;11.116;2023-05-01T23:09:13;99293.00;;;12.96;80.30
68988;BME280;56038;46.080;11.116;2023-05-01T23:14:15;99293.50;;;13.03;80.18
68988;BME280;56038;46.080;11.116;2023-05-01T23:19:21;99298.84;;;13.01;80.43
68988;BME280;56038;46.080;11.116;2023-05-01T23:24:23;99293.59;;;13.01;80.85
68988;BME280;56038;46.080;11.116;2023-05-01T23:34:37;99289.13;;;13.03;80.82
68988;BME280;56038;46.080;11.116;2023-05-01T23:39:40;99284.34;;;12.94;82.33
68988;BME280;56038;46.080;11.116;2023-05-01T23:44:42;99279.13;;;12.94;82.75
68988;BME280;56038;46.080;11.116;2023-05-01T23:49:45;99283.34;;;12.97;82.67
68988;BME280;56038;46.080;11.116;2023-05-01T23:54:46;99278.25;;;12.94;83.45
68988;BME280;56038;46.080;11.116;2023-05-01T23:59:48;99273.25;;;12.89;83.50
